This is the latest recevied weather packets stored in our database for station/object W8AN. If no packets are shown the sender has not sent any weather packets the latest 10 day(s).
| Time | Temp. | Humidity | Pressure | Rain* | Wind** | Luminosity | Snow |
|---|---|---|---|---|---|---|---|
| 1778081656 | 11.67° C | 46% | 4267.1 hPa | 0 mm | - | 652 W/m² | - |
| 1778081353 | 11.67° C | 48% | 4267.2 hPa | 0 mm | - | 447 W/m² | - |
| 1778081050 | 12.78° C | 53% | 4267.1 hPa | 0 mm | - | 901 W/m² | - |
| 1778080749 | 11.67° C | 51% | 4267.1 hPa | 0 mm | - | 846 W/m² | - |
| 1778080445 | 11.67° C | 47% | 4267.1 hPa | 0 mm | - | 831 W/m² | - |
| 1778080143 | 12.22° C | 59% | 4267.2 hPa | 0 mm | - | 830 W/m² | - |
| 1778079839 | 11.67° C | 53% | 4267.1 hPa | 0 mm | - | 799 W/m² | - |
| 1778079536 | 11.67° C | 53% | 4266.9 hPa | 0 mm | - | 724 W/m² | - |
| 1778079232 | 11.67° C | 54% | 4266.8 hPa | 0 mm | - | 639 W/m² | - |
| 1778078930 | 11.11° C | 52% | 4266.7 hPa | 0 mm | - | 539 W/m² | - |
| 1778078626 | 11.11° C | 56% | 4266.8 hPa | 0 mm | - | 622 W/m² | - |
| 1778078325 | 11.67° C | 55% | 4266.4 hPa | 0 mm | - | 742 W/m² | - |
| 1778078021 | 11.11° C | 56% | 4266.5 hPa | 0 mm | - | 603 W/m² | - |
| 1778077720 | 11.11° C | 57% | 4266.5 hPa | 0 mm | - | 541 W/m² | - |
| 1778077417 | 11.11° C | 56% | 4266.4 hPa | 0 mm | - | 699 W/m² | - |
| 1778077115 | 10.56° C | 59% | 4266.4 hPa | 0 mm | - | 535 W/m² | - |
| 1778076813 | 10.56° C | 62% | 4266.3 hPa | 0 mm | - | 679 W/m² | - |
| 1778076511 | 10.56° C | 62% | 4266.5 hPa | 0 mm | - | 648 W/m² | - |
| 1778076207 | 10.56° C | 60% | 4266.4 hPa | 0 mm | - | 670 W/m² | - |
| 1778075904 | 10.56° C | 59% | 4266.3 hPa | 0 mm | - | 650 W/m² | - |
| 1778075601 | 10° C | 62% | 4266.3 hPa | 0 mm | - | 632 W/m² | - |
| 1778075297 | 10° C | 65% | 4266.5 hPa | 0 mm | - | 319 W/m² | - |
| 1778074994 | 10° C | 67% | 4266.5 hPa | 0 mm | - | 320 W/m² | - |
| 1778074691 | 10° C | 65% | 4266.4 hPa | 0 mm | - | 461 W/m² | - |
| 1778074388 | 10° C | 66% | 4266.4 hPa | 0 mm | - | 314 W/m² | - |
* Rain latest hour (hover to see other rain measurements)
** Current wind speed in m/s (hover to see current wind gust speed)